createdAt,value
2023-02-12T00:00:44.806Z,100.00
2023-02-12T00:03:13.234Z,100.00
2023-02-12T00:05:41.179Z,100.00
2023-02-12T00:08:08.550Z,100.00
2023-02-12T00:10:35.538Z,100.00
2023-02-12T00:13:02.599Z,100.00
2023-02-12T00:15:29.414Z,100.00
2023-02-12T00:17:56.211Z,100.00
2023-02-12T00:20:24.433Z,100.00
2023-02-12T00:22:51.130Z,100.00
2023-02-12T00:25:17.882Z,100.00
2023-02-12T00:27:47.569Z,100.00
2023-02-12T00:30:14.854Z,100.00
2023-02-12T00:32:42.312Z,100.00
2023-02-12T00:35:09.770Z,100.00
2023-02-12T00:37:37.841Z,100.00
2023-02-12T00:40:05.429Z,100.00
2023-02-12T00:42:32.438Z,100.00
2023-02-12T00:44:59.371Z,100.00
2023-02-12T00:47:26.152Z,100.00
2023-02-12T00:49:55.937Z,100.00
2023-02-12T00:52:24.089Z,100.00
2023-02-12T00:54:55.061Z,100.00
2023-02-12T00:57:22.964Z,100.00
2023-02-12T00:59:49.640Z,100.00
2023-02-12T01:02:16.502Z,100.00
2023-02-12T01:04:43.455Z,100.00
2023-02-12T01:07:10.603Z,100.00
2023-02-12T01:09:37.382Z,100.00
2023-02-12T01:12:08.619Z,100.00
2023-02-12T01:14:36.131Z,100.00
2023-02-12T01:17:04.177Z,100.00
2023-02-12T01:19:31.179Z,100.00
2023-02-12T01:21:58.209Z,100.00
2023-02-12T01:24:25.137Z,100.00
2023-02-12T01:26:52.088Z,100.00
2023-02-12T01:29:20.343Z,100.00
2023-02-12T01:31:50.183Z,100.00
2023-02-12T01:34:17.237Z,100.00
2023-02-12T01:36:44.203Z,100.00
2023-02-12T01:39:12.205Z,100.00
2023-02-12T01:41:44.752Z,100.00
2023-02-12T01:44:15.844Z,100.00
2023-02-12T01:46:46.776Z,100.00
2023-02-12T01:49:18.785Z,100.00
2023-02-12T01:51:48.488Z,100.00
2023-02-12T01:54:19.096Z,100.00
2023-02-12T01:56:46.827Z,100.00
2023-02-12T01:59:16.745Z,100.00
2023-02-12T02:01:44.985Z,100.00
2023-02-12T02:04:16.747Z,100.00
2023-02-12T02:06:46.222Z,100.00
2023-02-12T02:09:13.140Z,100.00
2023-02-12T02:11:39.841Z,100.00
2023-02-12T02:14:06.912Z,100.00
2023-02-12T02:16:36.464Z,100.00
2023-02-12T02:19:23.045Z,100.00
2023-02-12T02:22:14.820Z,100.00
2023-02-12T02:25:07.940Z,100.00
2023-02-12T02:27:42.320Z,100.00
2023-02-12T02:30:25.042Z,100.00
2023-02-12T02:32:59.194Z,100.00
2023-02-12T02:35:32.791Z,100.00
2023-02-12T02:38:15.733Z,100.00
2023-02-12T02:40:50.008Z,100.00
2023-02-12T02:43:23.476Z,100.00
2023-02-12T02:45:56.214Z,100.00
2023-02-12T02:48:29.581Z,100.00
2023-02-12T02:51:05.670Z,100.00
2023-02-12T02:53:35.281Z,100.00
2023-02-12T02:56:06.628Z,100.00
2023-02-12T02:58:35.806Z,100.00
2023-02-12T03:01:07.845Z,100.00
2023-02-12T03:03:38.512Z,100.00
2023-02-12T03:06:11.326Z,100.00
2023-02-12T03:08:42.420Z,100.00
2023-02-12T03:11:17.119Z,100.00
2023-02-12T03:13:48.978Z,100.00
2023-02-12T03:16:23.220Z,100.00
2023-02-12T03:18:56.367Z,100.00
2023-02-12T03:21:32.056Z,100.00
2023-02-12T03:24:02.842Z,100.00
2023-02-12T03:26:37.569Z,100.00
2023-02-12T03:29:04.526Z,100.00
2023-02-12T03:31:42.222Z,100.00
2023-02-12T03:34:14.835Z,100.00
2023-02-12T03:36:48.608Z,100.00
2023-02-12T03:39:25.664Z,100.00
2023-02-12T03:41:59.584Z,100.00
2023-02-12T03:44:43.906Z,100.00
2023-02-12T03:47:21.837Z,100.00
2023-02-12T03:49:57.343Z,100.00
2023-02-12T03:52:24.343Z,100.00
2023-02-12T03:54:52.735Z,100.00
2023-02-12T03:57:22.678Z,100.00
2023-02-12T03:59:50.484Z,100.00
2023-02-12T04:02:19.464Z,100.00
2023-02-12T04:04:47.590Z,100.00
2023-02-12T04:07:15.699Z,100.00
2023-02-12T04:09:42.492Z,100.00
2023-02-12T04:12:33.462Z,100.00
2023-02-12T04:15:10.697Z,100.00
2023-02-12T04:17:50.099Z,100.00
2023-02-12T04:20:27.126Z,100.00
2023-02-12T04:23:09.251Z,100.00
2023-02-12T04:25:50.905Z,100.00
2023-02-12T04:28:28.603Z,100.00
2023-02-12T04:30:59.744Z,100.00
2023-02-12T04:33:35.086Z,100.00
2023-02-12T04:36:06.926Z,100.00
2023-02-12T04:38:40.124Z,100.00
2023-02-12T04:41:07.986Z,100.00
2023-02-12T04:43:37.163Z,100.00
2023-02-12T04:46:05.294Z,100.00
2023-02-12T04:48:34.198Z,100.00
2023-02-12T04:51:01.278Z,100.00
2023-02-12T04:53:28.499Z,100.00
2023-02-12T04:55:55.529Z,100.00
2023-02-12T04:58:22.668Z,100.00
2023-02-12T05:00:50.167Z,100.00
2023-02-12T05:03:19.116Z,100.00
2023-02-12T05:05:48.549Z,100.00
2023-02-12T05:08:15.545Z,100.00
2023-02-12T05:10:42.637Z,100.00
2023-02-12T05:13:10.674Z,100.00
2023-02-12T05:15:38.983Z,100.00
2023-02-12T05:18:06.063Z,100.00
2023-02-12T05:20:33.108Z,100.00
2023-02-12T05:23:03.635Z,100.00
2023-02-12T05:25:30.773Z,100.00
2023-02-12T05:27:57.570Z,100.00
2023-02-12T05:30:24.920Z,100.00
2023-02-12T05:32:51.821Z,100.00
2023-02-12T05:35:18.985Z,100.00
2023-02-12T05:37:46.229Z,100.00
2023-02-12T05:40:15.941Z,100.00
2023-02-12T05:42:42.644Z,100.00
2023-02-12T05:45:09.933Z,100.00
2023-02-12T05:47:36.815Z,100.00
2023-02-12T05:50:03.842Z,100.00
2023-02-12T05:52:31.337Z,100.00
2023-02-12T05:54:58.400Z,100.00
2023-02-12T05:57:26.764Z,100.00
2023-02-12T05:59:53.904Z,100.00
2023-02-12T06:02:20.733Z,100.00
2023-02-12T06:04:48.754Z,100.00
2023-02-12T06:07:16.998Z,100.00
2023-02-12T06:09:46.943Z,100.00
2023-02-12T06:12:16.856Z,100.00
2023-02-12T06:14:46.119Z,100.00
2023-02-12T06:17:12.992Z,100.00
2023-02-12T06:19:39.865Z,100.00
2023-02-12T06:22:08.948Z,100.00
2023-02-12T06:24:35.775Z,100.00
2023-02-12T06:27:03.350Z,100.00
2023-02-12T06:29:30.352Z,100.00
2023-02-12T06:31:58.538Z,100.00
2023-02-12T06:34:25.295Z,100.00
2023-02-12T06:36:52.097Z,100.00
2023-02-12T06:39:19.023Z,100.00
2023-02-12T06:41:46.262Z,100.00
2023-02-12T06:44:14.065Z,100.00
2023-02-12T06:46:41.674Z,100.00
2023-02-12T06:49:12.514Z,100.00
2023-02-12T06:51:39.539Z,100.00
2023-02-12T06:54:06.538Z,100.00
2023-02-12T06:56:33.343Z,100.00
2023-02-12T06:59:00.545Z,100.00
2023-02-12T07:01:29.965Z,100.00
2023-02-12T07:03:58.125Z,100.00
2023-02-12T07:06:27.938Z,100.00
2023-02-12T07:08:56.336Z,100.00
2023-02-12T07:11:24.672Z,100.00
2023-02-12T07:13:51.900Z,100.00
2023-02-12T07:16:18.907Z,100.00
2023-02-12T07:18:47.174Z,100.00
2023-02-12T07:21:18.076Z,100.00
2023-02-12T07:23:50.998Z,100.00
2023-02-12T07:26:19.036Z,100.00
2023-02-12T07:28:46.926Z,100.00
2023-02-12T07:31:16.001Z,100.00
2023-02-12T07:33:43.418Z,100.00
2023-02-12T07:36:14.350Z,100.00
2023-02-12T07:38:41.775Z,100.00
2023-02-12T07:41:16.087Z,100.00
2023-02-12T07:43:46.754Z,100.00
2023-02-12T07:46:15.777Z,100.00
2023-02-12T07:48:45.775Z,100.00
2023-02-12T07:51:14.355Z,100.00
2023-02-12T07:53:41.209Z,100.00
2023-02-12T07:56:12.104Z,100.00
2023-02-12T07:58:40.162Z,100.00
2023-02-12T08:01:16.024Z,100.00
2023-02-12T08:03:43.411Z,100.00
2023-02-12T08:06:12.278Z,100.00
2023-02-12T08:08:39.251Z,100.00
2023-02-12T08:11:07.273Z,100.00
2023-02-12T08:13:38.636Z,100.00
2023-02-12T08:16:06.976Z,100.00
2023-02-12T08:18:34.864Z,100.00
2023-02-12T08:21:02.885Z,100.00
2023-02-12T08:23:29.805Z,100.00
2023-02-12T08:26:05.493Z,100.00
2023-02-12T08:28:32.684Z,100.00
2023-02-12T08:31:02.139Z,100.00
2023-02-12T08:33:30.163Z,100.00
2023-02-12T08:36:02.508Z,100.00
2023-02-12T08:38:29.358Z,100.00
2023-02-12T08:41:02.743Z,100.00
2023-02-12T08:43:29.910Z,100.00
2023-02-12T08:46:03.325Z,100.00
2023-02-12T08:48:30.211Z,100.00
2023-02-12T08:50:58.063Z,100.00
2023-02-12T08:53:25.909Z,100.00
2023-02-12T08:55:52.708Z,100.00
2023-02-12T08:58:19.653Z,100.00
2023-02-12T09:00:46.481Z,100.00
2023-02-12T09:03:15.310Z,100.00
2023-02-12T09:05:42.316Z,100.00
2023-02-12T09:08:09.590Z,100.00
2023-02-12T09:10:39.856Z,100.00
2023-02-12T09:13:06.977Z,100.00
2023-02-12T09:15:39.506Z,100.00
2023-02-12T09:18:07.692Z,100.00
2023-02-12T09:20:37.684Z,100.00
2023-02-12T09:23:06.857Z,100.00
2023-02-12T09:25:34.441Z,100.00
2023-02-12T09:28:01.406Z,100.00
2023-02-12T09:30:29.779Z,100.00
2023-02-12T09:32:56.799Z,100.00
2023-02-12T09:35:29.561Z,100.00
2023-02-12T09:37:59.293Z,100.00
2023-02-12T09:40:37.791Z,100.00
2023-02-12T09:43:16.462Z,100.00
2023-02-12T09:45:53.549Z,100.00
2023-02-12T09:48:38.410Z,100.00
2023-02-12T09:51:08.286Z,100.00
2023-02-12T09:53:40.097Z,100.00
2023-02-12T09:56:13.686Z,100.00
2023-02-12T09:58:46.405Z,100.00
2023-02-12T10:01:15.737Z,100.00
2023-02-12T10:03:43.287Z,100.00
2023-02-12T10:06:16.243Z,100.00
2023-02-12T10:09:07.100Z,100.00
2023-02-12T10:11:50.816Z,100.00
2023-02-12T10:14:46.709Z,100.00
2023-02-12T10:17:19.682Z,100.00
2023-02-12T10:20:11.935Z,100.00
2023-02-12T10:22:56.874Z,100.00
2023-02-12T10:25:30.608Z,100.00
2023-02-12T10:28:00.822Z,100.00
2023-02-12T10:30:37.859Z,100.00
2023-02-12T10:33:09.866Z,100.00
2023-02-12T10:35:40.267Z,100.00
2023-02-12T10:38:16.116Z,100.00
2023-02-12T10:40:46.310Z,100.00
2023-02-12T10:43:13.783Z,100.00
2023-02-12T10:45:42.871Z,100.00
2023-02-12T10:48:13.784Z,100.00
2023-02-12T10:50:52.412Z,100.00
2023-02-12T10:53:22.915Z,100.00
2023-02-12T10:56:09.580Z,100.00
2023-02-12T10:58:36.556Z,100.00
2023-02-12T11:01:04.726Z,100.00
2023-02-12T11:03:33.128Z,100.00
2023-02-12T11:06:13.082Z,100.00
2023-02-12T11:08:40.231Z,100.00
2023-02-12T11:11:12.030Z,100.00
2023-02-12T11:13:41.886Z,100.00
2023-02-12T11:16:09.394Z,100.00
2023-02-12T11:18:37.572Z,100.00
2023-02-12T11:21:07.903Z,100.00
2023-02-12T11:23:36.222Z,100.00
2023-02-12T11:26:05.437Z,100.00
2023-02-12T11:28:36.931Z,100.00
2023-02-12T11:31:20.439Z,100.00
2023-02-12T11:33:47.548Z,100.00
2023-02-12T11:36:21.143Z,100.00
2023-02-12T11:39:02.282Z,100.00
2023-02-12T11:41:42.133Z,100.00
2023-02-12T11:44:16.214Z,100.00
2023-02-12T11:46:49.341Z,100.00
2023-02-12T11:49:23.520Z,100.00
2023-02-12T11:51:52.859Z,100.00
2023-02-12T11:54:23.503Z,100.00
2023-02-12T11:56:50.764Z,100.00
2023-02-12T11:59:36.476Z,100.00
2023-02-12T12:02:22.036Z,100.00
2023-02-12T12:04:51.887Z,100.00
2023-02-12T12:07:24.355Z,100.00
2023-02-12T12:10:00.504Z,100.00
2023-02-12T12:12:35.140Z,100.00
2023-02-12T12:15:13.328Z,100.00
2023-02-12T12:17:47.774Z,100.00
2023-02-12T12:20:26.436Z,99.21
2023-02-12T12:22:58.794Z,99.68
2023-02-12T12:25:31.705Z,99.52
2023-02-12T12:28:07.062Z,99.52
2023-02-12T12:30:50.749Z,99.35
2023-02-12T12:33:22.763Z,99.31
2023-02-12T12:36:08.658Z,99.09
2023-02-12T12:38:46.094Z,99.50
2023-02-12T12:41:23.753Z,99.15
2023-02-12T12:44:02.804Z,98.71
2023-02-12T12:46:53.470Z,98.60
2023-02-12T12:49:39.046Z,98.57
2023-02-12T12:52:18.604Z,99.09
2023-02-12T12:55:08.969Z,98.76
2023-02-12T12:57:47.614Z,98.42
2023-02-12T13:00:27.590Z,97.89
2023-02-12T13:03:13.536Z,97.03
2023-02-12T13:06:04.964Z,97.39
2023-02-12T13:09:00.790Z,97.45
2023-02-12T13:11:57.033Z,97.89
2023-02-12T13:14:42.831Z,97.12
2023-02-12T13:17:21.747Z,97.28
2023-02-12T13:20:17.761Z,97.41
2023-02-12T13:23:01.067Z,97.33
2023-02-12T13:28:34.566Z,97.47
2023-02-12T13:31:16.274Z,97.22
2023-02-12T13:34:14.858Z,97.26
2023-02-12T13:36:49.895Z,96.99
2023-02-12T13:39:33.351Z,96.90
2023-02-12T13:42:19.572Z,97.49
2023-02-12T13:45:04.702Z,97.37
2023-02-12T13:47:56.943Z,97.31
2023-02-12T13:51:05.077Z,96.41
2023-02-12T13:53:46.664Z,97.03
2023-02-12T13:56:34.506Z,96.89
2023-02-12T13:59:34.074Z,96.50
2023-02-12T14:02:25.394Z,96.21
2023-02-12T14:05:16.647Z,96.28
2023-02-12T14:08:02.817Z,96.47
2023-02-12T14:10:46.511Z,96.25
2023-02-12T14:13:29.378Z,96.50
2023-02-12T14:16:02.022Z,96.16
2023-02-12T14:18:45.007Z,95.81
2023-02-12T14:21:48.291Z,95.57
2023-02-12T14:24:50.524Z,95.92
2023-02-12T14:31:43.056Z,95.85
2023-02-12T14:34:51.204Z,95.87
2023-02-12T14:37:56.980Z,95.88
2023-02-12T14:40:45.665Z,95.81
2023-02-12T14:43:39.536Z,95.83
2023-02-12T14:46:52.494Z,96.08
2023-02-12T14:49:27.210Z,95.94
2023-02-12T14:52:01.967Z,95.62
2023-02-12T14:54:38.389Z,95.93
2023-02-12T14:57:15.807Z,95.81
2023-02-12T14:59:49.919Z,96.24
2023-02-12T15:02:49.485Z,96.06
2023-02-12T15:05:46.202Z,96.17
2023-02-12T15:08:25.355Z,96.15
2023-02-12T15:11:13.158Z,96.14
2023-02-12T15:13:57.781Z,96.03
2023-02-12T15:16:38.618Z,95.73
2023-02-12T15:19:22.007Z,95.71
2023-02-12T15:22:00.963Z,95.65
2023-02-12T15:24:30.834Z,95.73
2023-02-12T15:27:01.672Z,95.64
2023-02-12T15:29:47.598Z,95.73
2023-02-12T15:32:22.703Z,96.07
2023-02-12T15:34:59.574Z,95.95
2023-02-12T15:37:29.515Z,96.10
2023-02-12T15:40:11.986Z,95.89
2023-02-12T15:42:57.841Z,95.86
2023-02-12T15:45:36.432Z,95.77
2023-02-12T15:48:17.994Z,96.00
2023-02-12T15:51:03.396Z,95.65
2023-02-12T15:53:42.616Z,95.54
2023-02-12T15:56:33.464Z,95.37
2023-02-12T15:59:04.911Z,95.79
2023-02-12T16:01:40.665Z,95.11
2023-02-12T16:04:21.337Z,95.24
2023-02-12T16:06:52.011Z,95.19
2023-02-12T16:09:28.954Z,95.15
2023-02-12T16:12:03.136Z,94.95
2023-02-12T16:14:48.597Z,94.75
2023-02-12T16:20:29.945Z,94.13
2023-02-12T16:23:10.676Z,94.03
2023-02-12T16:25:40.938Z,94.00
2023-02-12T16:28:35.793Z,93.89
2023-02-12T16:31:16.726Z,93.70
2023-02-12T16:33:54.734Z,93.32
2023-02-12T16:37:01.964Z,93.04
2023-02-12T16:40:06.124Z,93.11
2023-02-12T16:42:55.591Z,93.18
2023-02-12T16:48:41.897Z,92.75
2023-02-12T16:51:28.416Z,92.58
2023-02-12T16:54:03.905Z,92.98
2023-02-12T16:56:34.609Z,92.45
2023-02-12T16:59:05.562Z,92.32
2023-02-12T17:01:37.563Z,92.35
2023-02-12T17:04:15.154Z,92.00
2023-02-12T17:06:46.274Z,91.91
2023-02-12T17:09:16.378Z,91.85
2023-02-12T17:11:43.222Z,91.57
2023-02-12T17:14:30.442Z,91.50
2023-02-12T17:17:23.671Z,91.26
2023-02-12T17:19:53.565Z,91.78
2023-02-12T17:22:23.430Z,91.66
2023-02-12T17:25:23.884Z,91.59
2023-02-12T17:27:59.494Z,91.51
2023-02-12T17:30:37.359Z,91.58
2023-02-12T17:33:07.414Z,91.92
2023-02-12T17:35:55.316Z,91.42
2023-02-12T17:38:26.262Z,91.77
2023-02-12T17:41:13.923Z,91.48
2023-02-12T17:43:43.615Z,92.18
2023-02-12T17:46:33.861Z,91.74
2023-02-12T17:54:55.171Z,91.74
2023-02-12T17:57:31.840Z,92.05
2023-02-12T18:00:25.210Z,91.71
2023-02-12T18:03:02.813Z,91.66
2023-02-12T18:06:27.337Z,91.65
2023-02-12T18:09:03.031Z,92.16
2023-02-12T18:11:31.588Z,91.86
2023-02-12T18:14:37.150Z,92.29
2023-02-12T18:17:27.981Z,92.21
2023-02-12T18:21:16.576Z,92.00
2023-02-12T18:26:43.755Z,91.73
2023-02-12T18:29:21.893Z,91.83
2023-02-12T18:32:05.599Z,91.90
2023-02-12T18:40:28.688Z,91.61
2023-02-12T18:43:01.663Z,91.75
2023-02-12T18:45:33.642Z,92.02
2023-02-12T18:48:13.199Z,92.08
2023-02-12T18:50:40.237Z,91.90
2023-02-12T18:53:09.259Z,91.95
2023-02-12T18:56:20.527Z,91.65
2023-02-12T19:02:42.925Z,91.79
2023-02-12T19:12:59.822Z,92.76
2023-02-12T19:15:55.732Z,92.64
2023-02-12T19:19:07.585Z,92.35
2023-02-12T19:25:12.072Z,92.86
2023-02-12T19:28:06.732Z,92.54
2023-02-12T19:30:48.803Z,92.85
2023-02-12T19:33:21.997Z,92.74
2023-02-12T19:36:09.124Z,93.07
2023-02-12T19:38:50.890Z,92.98
2023-02-12T19:41:34.928Z,92.95
2023-02-12T19:44:48.682Z,93.13
2023-02-12T19:47:43.417Z,93.16
2023-02-12T19:50:46.200Z,93.00
2023-02-12T20:00:02.676Z,93.06
2023-02-12T20:06:12.031Z,93.25
2023-02-12T20:12:04.317Z,93.27
2023-02-12T20:15:13.101Z,93.30
2023-02-12T20:18:05.517Z,93.55
2023-02-12T20:21:16.603Z,93.40
2023-02-12T20:23:54.001Z,93.74
2023-02-12T20:26:29.342Z,93.48
2023-02-12T20:32:32.928Z,93.73
2023-02-12T20:35:52.954Z,93.28
2023-02-12T20:38:50.635Z,93.73
2023-02-12T20:42:10.659Z,93.55
2023-02-12T20:48:26.828Z,93.29
2023-02-12T20:54:15.400Z,93.14
2023-02-12T21:00:08.668Z,93.67
2023-02-12T21:03:23.642Z,93.50
2023-02-12T21:09:20.483Z,93.79
2023-02-12T21:12:05.396Z,93.56
2023-02-12T21:14:51.028Z,93.15
2023-02-12T21:17:20.876Z,93.26
2023-02-12T21:19:51.713Z,93.33
2023-02-12T21:22:21.835Z,93.24
2023-02-12T21:24:55.252Z,93.43
2023-02-12T21:27:30.465Z,93.19
2023-02-12T21:29:57.863Z,93.40
2023-02-12T21:32:32.321Z,93.23
2023-02-12T21:34:59.264Z,93.18
2023-02-12T21:37:27.452Z,93.14
2023-02-12T21:39:56.185Z,93.37
2023-02-12T21:42:25.849Z,93.10
2023-02-12T21:44:52.858Z,92.56
2023-02-12T21:47:21.831Z,92.45
2023-02-12T21:49:52.938Z,92.77
2023-02-12T21:52:19.913Z,92.68
2023-02-12T21:54:47.138Z,92.51
2023-02-12T21:57:17.910Z,92.92
2023-02-12T21:59:47.249Z,92.89
2023-02-12T22:02:15.278Z,93.12
2023-02-12T22:04:42.204Z,92.78
2023-02-12T22:07:10.041Z,92.92
2023-02-12T22:09:39.580Z,93.11
2023-02-12T22:12:08.825Z,92.90
2023-02-12T22:14:40.496Z,93.26
2023-02-12T22:17:07.402Z,93.11
2023-02-12T22:19:35.330Z,92.64
2023-02-12T22:22:02.566Z,92.81
2023-02-12T22:24:29.648Z,92.73
2023-02-12T22:26:56.609Z,92.44
2023-02-12T22:29:24.011Z,92.45
2023-02-12T22:31:52.865Z,92.98
2023-02-12T22:34:20.444Z,92.69
2023-02-12T22:36:49.303Z,92.91
2023-02-12T22:39:18.821Z,92.64
2023-02-12T22:41:46.381Z,92.68
2023-02-12T22:44:15.898Z,92.50
2023-02-12T22:46:45.700Z,93.05
2023-02-12T22:49:14.271Z,92.76
2023-02-12T22:51:42.799Z,92.76
2023-02-12T22:54:13.398Z,93.09
2023-02-12T22:56:40.329Z,93.16
2023-02-12T22:59:07.570Z,92.80
2023-02-12T23:01:34.527Z,92.52
2023-02-12T23:04:04.370Z,92.88
2023-02-12T23:06:47.579Z,92.99
2023-02-12T23:09:16.200Z,92.70
2023-02-12T23:11:43.058Z,92.86
2023-02-12T23:14:10.293Z,93.38
2023-02-12T23:16:37.249Z,92.88
2023-02-12T23:19:04.564Z,93.23
2023-02-12T23:21:33.876Z,93.10
2023-02-12T23:24:02.133Z,92.96
2023-02-12T23:26:30.061Z,92.56
2023-02-12T23:28:57.570Z,92.81
2023-02-12T23:31:25.428Z,93.03
2023-02-12T23:33:57.969Z,92.76
2023-02-12T23:36:24.861Z,92.63
2023-02-12T23:38:51.713Z,92.70
2023-02-12T23:41:20.121Z,93.05
2023-02-12T23:43:46.989Z,92.94
2023-02-12T23:46:13.782Z,93.08
2023-02-12T23:48:41.189Z,92.73
2023-02-12T23:51:09.063Z,92.68
2023-02-12T23:53:35.914Z,92.98
2023-02-12T23:56:02.855Z,92.36
2023-02-12T23:58:31.364Z,92.76
